Boone Observed Data For Previous 48 Hours

Caption
Day and Hour Reservoir Elevation (behind dam)* Tailwater Elevation (below dam)* Average Hourly Discharge*
8/20/2018 2 AM EDT 1,353.50 1,263.29 3,383
8/20/2018 3 AM EDT 1,353.48 1,263.29 3,359
8/20/2018 4 AM EDT 1,353.41 1,263.30 3,336
8/20/2018 5 AM EDT 1,353.39 1,263.15 3,294
8/20/2018 6 AM EDT 1,353.32 1,263.23 3,521
8/20/2018 7 AM EDT 1,353.26 1,263.18 3,591
8/20/2018 8 AM EDT 1,353.22 1,263.19 3,581
8/20/2018 9 AM EDT 1,353.26 1,261.31 72
8/20/2018 10 AM EDT 1,353.34 1,260.87 0
8/20/2018 11 AM EDT 1,353.42 1,260.50 0
8/20/2018 12 PM EDT 1,353.49 1,260.34 0
8/20/2018 1 PM EDT 1,353.56 1,260.30 0
8/20/2018 2 PM EDT 1,353.57 1,262.79 213
8/20/2018 3 PM EDT 1,353.54 1,263.36 3,374
8/20/2018 4 PM EDT 1,353.52 1,263.18 3,466
8/20/2018 5 PM EDT 1,353.44 1,263.15 3,502
8/20/2018 6 PM EDT 1,353.41 1,263.10 3,491
8/20/2018 7 PM EDT 1,353.39 1,263.18 3,479
8/20/2018 8 PM EDT 1,353.39 1,263.00 3,314
8/20/2018 9 PM EDT 1,353.43 1,262.99 3,361
8/20/2018 10 PM EDT 1,353.47 1,263.19 3,507
8/20/2018 11 PM EDT 1,353.53 1,263.21 3,306
8/21/2018 12 AM EDT 1,353.52 1,263.11 3,395
8/21/2018 1 AM EDT 1,353.56 1,263.24 3,461
8/21/2018 2 AM EDT 1,353.57 1,263.22 3,275
8/21/2018 3 AM EDT 1,353.58 1,263.31 3,313
8/21/2018 4 AM EDT 1,353.67 1,260.32 40
8/21/2018 5 AM EDT 1,353.80 1,260.27 0
8/21/2018 6 AM EDT 1,353.83 1,262.89 221
8/21/2018 7 AM EDT 1,353.86 1,263.18 3,482
8/21/2018 8 AM EDT 1,353.86 1,263.32 3,492
8/21/2018 9 AM EDT 1,353.83 1,263.56 3,395
8/21/2018 10 AM EDT 1,353.84 1,263.58 3,395
8/21/2018 11 AM EDT 1,353.80 1,263.30 3,410
8/21/2018 12 PM EDT 1,353.78 1,262.97 3,504
8/21/2018 1 PM EDT 1,353.75 1,263.30 3,610
8/21/2018 2 PM EDT 1,353.76 1,263.21 3,451
8/21/2018 3 PM EDT 1,353.71 1,263.29 3,319
8/21/2018 4 PM EDT 1,353.71 1,263.27 3,345
8/21/2018 5 PM EDT 1,353.68 1,263.23 3,271
8/21/2018 6 PM EDT 1,353.67 1,263.27 3,261
8/21/2018 7 PM EDT 1,353.69 1,262.96 3,278
8/21/2018 8 PM EDT 1,353.69 1,263.30 3,108
8/21/2018 9 PM EDT 1,353.70 1,263.27 3,370
8/21/2018 10 PM EDT 1,353.74 1,263.27 3,345
8/21/2018 11 PM EDT 1,353.79 1,263.02 3,168
8/22/2018 12 AM EDT 1,353.85 1,263.26 3,241
8/22/2018 1 AM EDT 1,353.84 1,263.30 3,385
8/22/2018 2 AM EDT 1,353.84 1,263.22 3,395
8/22/2018 3 AM EDT 1,353.84 1,263.19 3,335

Elevations are in feet above sea level. Discharges are in cubic feet per second and are reported at the end of the hour.